Flugplatz Torgau-Beilrode

Für EDOG sind keine METAR/TAF Berichte vorhanden.
Es werden die Flugwettermeldungen vom Flugplatz Holzdorf Airport in 23 km Entfernung angezeigt.

Bericht für ETSH

vom 28.02. um 02:20 UTC

Wind 5 kt aus 280°

Sichtweite 10 km oder mehr

aufgebrochene Bewölkung in 4500 ft

Temperatur 2.0°C

Taupunkt 1.0°C

Luftfeuchtigkeit 93%

Luftdruck 1006 hPa

ETSH 280220Z 28005KT 9999 BKN045 02/01 Q1006 BLU
Keine Prognose (TAF) verfügbar.
Impressum